createdAt,value
2019-03-13T00:01:40.266Z,6.10
2019-03-13T00:04:18.022Z,6.10
2019-03-13T00:06:48.197Z,6.10
2019-03-13T00:09:20.242Z,6.10
2019-03-13T00:11:50.295Z,6.10
2019-03-13T00:14:20.369Z,6.10
2019-03-13T00:16:59.482Z,6.10
2019-03-13T00:19:37.381Z,6.10
2019-03-13T00:22:11.097Z,6.10
2019-03-13T00:24:42.147Z,6.00
2019-03-13T00:27:18.302Z,6.00
2019-03-13T00:29:48.365Z,6.00
2019-03-13T00:32:24.178Z,6.00
2019-03-13T00:34:56.298Z,6.00
2019-03-13T00:37:32.280Z,6.00
2019-03-13T00:40:11.214Z,5.90
2019-03-13T00:42:47.364Z,6.00
2019-03-13T00:45:17.537Z,6.30
2019-03-13T00:47:51.762Z,6.60
2019-03-13T00:50:31.893Z,6.70
2019-03-13T00:53:04.198Z,6.80
2019-03-13T00:55:34.478Z,6.90
2019-03-13T00:58:05.549Z,6.90
2019-03-13T01:00:43.979Z,6.90
2019-03-13T01:03:24.202Z,6.90
2019-03-13T01:05:58.306Z,7.00
2019-03-13T01:08:35.242Z,7.00
2019-03-13T01:11:05.592Z,6.90
2019-03-13T01:13:35.676Z,6.90
2019-03-13T01:16:08.754Z,7.00
2019-03-13T01:18:39.845Z,7.00
2019-03-13T01:21:10.830Z,7.00
2019-03-13T01:23:44.606Z,7.00
2019-03-13T01:26:14.694Z,7.10
2019-03-13T01:28:54.226Z,7.00
2019-03-13T01:31:40.806Z,7.00
2019-03-13T01:34:27.174Z,7.00
2019-03-13T01:36:59.168Z,7.00
2019-03-13T01:39:31.128Z,6.90
2019-03-13T01:42:01.200Z,6.90
2019-03-13T01:44:35.470Z,6.90
2019-03-13T01:47:06.548Z,6.90
2019-03-13T01:49:36.666Z,6.90
2019-03-13T01:52:06.738Z,6.90
2019-03-13T01:54:36.838Z,6.80
2019-03-13T01:57:07.814Z,6.80
2019-03-13T01:59:37.894Z,6.80
2019-03-13T02:02:07.994Z,6.80
2019-03-13T02:04:38.066Z,6.80
2019-03-13T02:07:14.142Z,6.80
2019-03-13T02:09:45.158Z,6.80
2019-03-13T02:12:27.190Z,6.90
2019-03-13T02:14:57.273Z,6.90
2019-03-13T02:17:28.877Z,6.90
2019-03-13T02:19:58.962Z,6.90
2019-03-13T02:22:29.994Z,6.90
2019-03-13T02:25:00.376Z,6.80
2019-03-13T02:27:30.457Z,6.80
2019-03-13T02:30:00.955Z,6.80
2019-03-13T02:32:31.991Z,6.90
2019-03-13T02:35:02.059Z,7.00
2019-03-13T02:37:32.162Z,7.00
2019-03-13T02:40:02.268Z,6.90
2019-03-13T02:42:32.339Z,6.70
2019-03-13T02:45:03.586Z,6.50
2019-03-13T02:47:34.655Z,5.90
2019-03-13T02:50:09.329Z,5.50
2019-03-13T02:52:39.418Z,5.20
2019-03-13T02:55:11.192Z,5.10
2019-03-13T02:57:41.286Z,5.00
2019-03-13T03:00:32.467Z,5.00
2019-03-13T03:03:07.580Z,5.00
2019-03-13T03:05:40.103Z,5.00
2019-03-13T03:08:10.203Z,5.00
2019-03-13T03:10:40.519Z,5.00
2019-03-13T03:13:10.607Z,5.00
2019-03-13T03:15:41.643Z,5.00
2019-03-13T03:18:12.690Z,4.90
2019-03-13T03:20:44.760Z,4.90
2019-03-13T03:23:16.756Z,4.90
2019-03-13T03:25:46.907Z,4.80
2019-03-13T03:28:20.080Z,4.80
2019-03-13T03:30:51.199Z,4.80
2019-03-13T03:33:21.377Z,4.80
2019-03-13T03:35:58.223Z,4.80
2019-03-13T03:38:28.338Z,4.80
2019-03-13T03:41:07.646Z,4.70
2019-03-13T03:43:43.492Z,4.60
2019-03-13T03:46:13.567Z,4.50
2019-03-13T03:48:44.594Z,4.40
2019-03-13T03:51:19.788Z,4.10
2019-03-13T03:53:54.858Z,3.90
2019-03-13T03:56:25.959Z,3.70
2019-03-13T03:58:58.054Z,3.60
2019-03-13T04:01:29.018Z,3.50
2019-03-13T04:03:59.331Z,3.40
2019-03-13T04:06:29.565Z,3.30
2019-03-13T04:09:01.617Z,3.30
2019-03-13T04:11:33.778Z,3.20
2019-03-13T04:14:04.878Z,3.20
2019-03-13T04:16:34.957Z,3.10
2019-03-13T04:19:05.967Z,3.10
2019-03-13T04:21:36.911Z,3.20
2019-03-13T04:24:07.004Z,3.10
2019-03-13T04:26:37.103Z,3.20
2019-03-13T04:29:09.233Z,3.20
2019-03-13T04:31:41.961Z,3.20
2019-03-13T04:34:27.063Z,3.20
2019-03-13T04:36:57.092Z,3.20
2019-03-13T04:39:27.269Z,3.20
2019-03-13T04:41:57.413Z,3.20
2019-03-13T04:44:27.506Z,3.20
2019-03-13T04:47:03.398Z,3.20
2019-03-13T04:49:33.475Z,3.20
2019-03-13T04:52:16.538Z,3.20
2019-03-13T04:54:46.710Z,3.10
2019-03-13T04:57:16.795Z,3.00
2019-03-13T04:59:46.934Z,3.00
2019-03-13T05:02:17.914Z,3.00
2019-03-13T05:04:49.015Z,3.00
2019-03-13T05:07:19.103Z,2.80
2019-03-13T05:09:51.824Z,2.70
2019-03-13T05:12:34.007Z,2.60
2019-03-13T05:15:10.042Z,2.50
2019-03-13T05:17:55.323Z,2.50
2019-03-13T05:20:35.667Z,2.50
2019-03-13T05:23:11.920Z,2.50
2019-03-13T05:25:48.080Z,2.40
2019-03-13T05:28:18.186Z,2.30
2019-03-13T05:30:57.574Z,2.20
2019-03-13T05:33:35.819Z,2.20
2019-03-13T05:36:09.591Z,2.20
2019-03-13T05:38:40.587Z,2.20
2019-03-13T05:41:10.666Z,2.30
2019-03-13T05:43:44.335Z,2.30
2019-03-13T05:46:15.435Z,2.40
2019-03-13T05:48:45.762Z,2.50
2019-03-13T05:51:15.830Z,2.60
2019-03-13T05:53:46.834Z,2.80
2019-03-13T05:56:23.796Z,2.80
2019-03-13T05:58:55.911Z,2.90
2019-03-13T06:01:25.986Z,2.90
2019-03-13T06:04:01.926Z,3.00
2019-03-13T06:06:34.651Z,3.00
2019-03-13T06:09:07.765Z,3.00
2019-03-13T06:11:40.346Z,3.00
2019-03-13T06:14:17.282Z,3.00
2019-03-13T06:16:47.354Z,3.00
2019-03-13T06:19:20.502Z,2.90
2019-03-13T06:21:50.598Z,2.70
2019-03-13T06:24:21.635Z,2.60
2019-03-13T06:26:58.507Z,2.50
2019-03-13T06:29:36.302Z,2.50
2019-03-13T06:32:06.489Z,2.60
2019-03-13T06:34:36.560Z,2.70
2019-03-13T06:37:10.223Z,2.80
2019-03-13T06:39:40.302Z,3.20
2019-03-13T06:42:10.414Z,3.70
2019-03-13T06:44:40.502Z,4.30
2019-03-13T06:47:13.246Z,4.70
2019-03-13T06:49:44.308Z,4.90
2019-03-13T06:52:31.606Z,4.90
2019-03-13T06:55:01.478Z,4.80
2019-03-13T06:57:32.483Z,4.70
2019-03-13T07:00:16.681Z,4.60
2019-03-13T07:02:54.334Z,4.60
2019-03-13T07:05:31.828Z,4.50
2019-03-13T07:08:26.476Z,4.40
2019-03-13T07:10:58.182Z,4.50
2019-03-13T07:13:35.638Z,4.50
2019-03-13T07:16:15.220Z,4.40
2019-03-13T07:18:49.021Z,4.50
2019-03-13T07:21:39.502Z,4.50
2019-03-13T07:24:11.271Z,4.60
2019-03-13T07:26:51.426Z,4.60
2019-03-13T07:29:22.947Z,4.60
2019-03-13T07:31:54.684Z,4.50
2019-03-13T07:34:44.672Z,4.60
2019-03-13T07:37:32.334Z,4.80
2019-03-13T07:40:22.602Z,4.90
2019-03-13T07:42:58.349Z,5.10
2019-03-13T07:45:44.730Z,5.10
2019-03-13T07:48:19.183Z,5.50
2019-03-13T07:50:50.942Z,6.10
2019-03-13T07:53:34.505Z,6.60
2019-03-13T07:56:06.310Z,7.10
2019-03-13T07:58:43.869Z,7.10
2019-03-13T08:01:21.735Z,7.00
2019-03-13T08:03:53.468Z,7.10
2019-03-13T08:06:52.180Z,7.10
2019-03-13T08:09:32.011Z,6.70
2019-03-13T08:12:09.171Z,6.40
2019-03-13T08:14:58.794Z,6.50
2019-03-13T08:17:42.822Z,7.30
2019-03-13T08:20:31.830Z,8.10
2019-03-13T08:23:12.758Z,8.60
2019-03-13T08:26:00.730Z,9.40
2019-03-13T08:28:32.546Z,9.90
2019-03-13T08:31:21.259Z,9.10
2019-03-13T08:33:52.982Z,8.30
2019-03-13T08:36:48.375Z,7.70
2019-03-13T08:39:20.141Z,7.40
2019-03-13T08:41:56.434Z,7.00
2019-03-13T08:44:30.847Z,6.80
2019-03-13T08:47:12.422Z,6.80
2019-03-13T08:49:50.170Z,8.50
2019-03-13T08:52:21.951Z,10.10
2019-03-13T08:55:12.051Z,10.80
2019-03-13T08:57:50.136Z,11.00
2019-03-13T09:00:30.706Z,10.30
2019-03-13T09:03:02.430Z,9.90
2019-03-13T09:05:39.638Z,9.80
2019-03-13T09:08:31.742Z,9.60
2019-03-13T09:11:19.319Z,9.90
2019-03-13T09:13:53.702Z,12.10
2019-03-13T09:16:34.230Z,11.20
2019-03-13T09:19:08.672Z,10.40
2019-03-13T09:21:47.106Z,10.20
2019-03-13T09:24:46.382Z,9.30
2019-03-13T09:27:42.542Z,8.60
2019-03-13T09:30:17.625Z,8.10
2019-03-13T09:32:57.738Z,8.50
2019-03-13T09:35:46.531Z,8.30
2019-03-13T09:38:30.079Z,8.20
2019-03-13T09:41:10.919Z,8.10
2019-03-13T09:44:02.383Z,7.80
2019-03-13T09:46:51.108Z,7.60
2019-03-13T09:49:22.824Z,7.50
2019-03-13T09:52:11.890Z,8.00
2019-03-13T09:54:56.257Z,8.80
2019-03-13T09:57:41.738Z,8.90
2019-03-13T10:00:31.907Z,8.70
2019-03-13T10:03:13.596Z,8.10
2019-03-13T10:06:03.521Z,7.80
2019-03-13T10:08:40.162Z,7.40
2019-03-13T10:11:12.758Z,7.20
2019-03-13T10:13:50.338Z,7.20
2019-03-13T10:16:34.744Z,7.20
2019-03-13T10:19:15.078Z,7.20
2019-03-13T10:22:15.718Z,7.20
2019-03-13T10:25:00.783Z,7.10
2019-03-13T10:27:35.434Z,7.10
2019-03-13T10:30:14.558Z,7.40
2019-03-13T10:32:46.288Z,8.00
2019-03-13T10:35:44.991Z,8.30
2019-03-13T10:38:26.720Z,8.20
2019-03-13T10:41:20.526Z,8.40
2019-03-13T10:43:58.466Z,8.80
2019-03-13T10:46:52.544Z,10.70
2019-03-13T10:49:26.211Z,13.80
2019-03-13T10:52:06.291Z,15.40
2019-03-13T10:54:52.718Z,15.10
2019-03-13T10:57:24.521Z,13.30
2019-03-13T11:00:07.908Z,12.00
2019-03-13T11:02:39.654Z,11.10
2019-03-13T11:05:17.926Z,10.30
2019-03-13T11:07:52.382Z,11.30
2019-03-13T11:10:30.190Z,11.00
2019-03-13T11:13:18.055Z,9.80
2019-03-13T11:15:56.002Z,9.20
2019-03-13T11:18:30.530Z,9.60
2019-03-13T11:21:04.226Z,11.40
2019-03-13T11:23:38.506Z,10.90
2019-03-13T11:26:17.982Z,10.30
2019-03-13T11:28:55.860Z,10.40
2019-03-13T11:31:40.716Z,13.40
2019-03-13T11:34:15.898Z,15.90
2019-03-13T11:37:04.013Z,16.40
2019-03-13T11:39:44.362Z,15.60
2019-03-13T11:42:24.478Z,13.40
2019-03-13T11:44:56.258Z,11.50
2019-03-13T11:47:41.244Z,10.60
2019-03-13T11:50:21.303Z,10.20
2019-03-13T11:52:55.459Z,9.70
2019-03-13T11:55:30.446Z,9.00
2019-03-13T11:58:08.359Z,8.90
2019-03-13T12:00:44.780Z,9.20
2019-03-13T12:03:16.498Z,12.80
2019-03-13T12:05:50.176Z,14.00
2019-03-13T12:08:37.206Z,13.00
2019-03-13T12:11:12.678Z,13.00
2019-03-13T12:13:56.334Z,11.70
2019-03-13T12:16:45.508Z,10.30
2019-03-13T12:19:17.247Z,9.30
2019-03-13T12:21:57.959Z,8.50
2019-03-13T12:24:32.318Z,8.30
2019-03-13T12:27:12.487Z,8.10
2019-03-13T12:29:52.852Z,7.90
2019-03-13T12:32:24.551Z,7.80
2019-03-13T12:35:03.101Z,7.60
2019-03-13T12:37:34.814Z,7.40
2019-03-13T12:40:13.250Z,7.30
2019-03-13T12:42:52.006Z,7.10
2019-03-13T12:45:24.670Z,7.10
2019-03-13T12:48:20.212Z,7.20
2019-03-13T12:51:01.481Z,7.20
2019-03-13T12:53:35.766Z,7.20
2019-03-13T12:56:07.523Z,7.20
2019-03-13T12:58:55.966Z,7.40
2019-03-13T13:01:38.470Z,7.50
2019-03-13T13:04:16.756Z,7.60
2019-03-13T13:06:51.259Z,7.60
2019-03-13T13:09:39.063Z,7.50
2019-03-13T13:12:10.774Z,7.60
2019-03-13T13:14:54.196Z,7.60
2019-03-13T13:17:35.058Z,7.50
2019-03-13T13:20:14.102Z,7.60
2019-03-13T13:22:45.148Z,7.90
2019-03-13T13:25:15.222Z,8.20
2019-03-13T13:27:45.327Z,9.30
2019-03-13T13:30:17.882Z,11.30
2019-03-13T13:32:53.958Z,14.40
2019-03-13T13:35:27.514Z,16.80
2019-03-13T13:37:58.554Z,18.30
2019-03-13T13:40:28.646Z,19.00
2019-03-13T13:42:59.718Z,18.80
2019-03-13T13:45:34.446Z,15.80
2019-03-13T13:48:10.458Z,14.70
2019-03-13T13:50:40.555Z,12.60
2019-03-13T13:53:10.654Z,10.90
2019-03-13T13:55:43.394Z,10.10
2019-03-13T13:58:16.766Z,9.40
2019-03-13T14:00:48.778Z,8.90
2019-03-13T14:03:19.738Z,8.30
2019-03-13T14:05:49.842Z,8.20
2019-03-13T14:08:19.922Z,8.40
2019-03-13T14:11:05.162Z,8.50
2019-03-13T14:13:36.808Z,8.50
2019-03-13T14:16:06.896Z,7.80
2019-03-13T14:18:37.859Z,7.30
2019-03-13T14:21:13.872Z,6.60
2019-03-13T14:23:44.008Z,6.80
2019-03-13T14:26:15.065Z,8.60
2019-03-13T14:28:45.198Z,9.10
2019-03-13T14:31:15.287Z,8.80
2019-03-13T14:33:45.374Z,9.40
2019-03-13T14:36:16.482Z,10.40
2019-03-13T14:38:52.398Z,9.50
2019-03-13T14:41:22.482Z,8.70
2019-03-13T14:43:52.604Z,8.80
2019-03-13T14:46:27.603Z,9.80
2019-03-13T14:48:57.707Z,13.00
2019-03-13T14:51:28.754Z,14.40
2019-03-13T14:53:58.882Z,14.60
2019-03-13T14:56:28.990Z,13.00
2019-03-13T14:58:59.106Z,14.30
2019-03-13T15:01:29.198Z,15.50
2019-03-13T15:04:00.194Z,13.70
2019-03-13T15:06:30.314Z,13.20
2019-03-13T15:09:02.362Z,11.40
2019-03-13T15:11:32.458Z,11.00
2019-03-13T15:14:03.534Z,12.90
2019-03-13T15:16:33.621Z,13.60
2019-03-13T15:19:03.730Z,12.00
2019-03-13T15:21:33.816Z,10.40
2019-03-13T15:24:04.908Z,9.10
2019-03-13T15:26:35.011Z,8.30
2019-03-13T15:29:07.759Z,8.00
2019-03-13T15:31:37.858Z,7.70
2019-03-13T15:34:10.970Z,7.40
2019-03-13T15:36:51.058Z,7.40
2019-03-13T15:39:22.802Z,7.30
2019-03-13T15:41:53.767Z,7.20
2019-03-13T15:44:25.386Z,7.20
2019-03-13T15:47:01.475Z,7.20
2019-03-13T15:49:33.552Z,7.20
2019-03-13T15:52:04.932Z,7.20
2019-03-13T15:54:35.003Z,7.20
2019-03-13T15:57:05.090Z,7.10
2019-03-13T15:59:35.155Z,7.00
2019-03-13T16:02:05.373Z,7.00
2019-03-13T16:04:36.371Z,6.90
2019-03-13T16:07:08.310Z,6.90
2019-03-13T16:09:38.490Z,6.90
2019-03-13T16:12:08.578Z,7.00
2019-03-13T16:14:38.651Z,7.00
2019-03-13T16:17:09.743Z,7.10
2019-03-13T16:19:41.966Z,7.20
2019-03-13T16:22:13.486Z,7.20
2019-03-13T16:24:43.591Z,7.10
2019-03-13T16:27:15.180Z,7.10
2019-03-13T16:29:46.277Z,7.00
2019-03-13T16:32:17.714Z,6.90
2019-03-13T16:34:51.122Z,6.80
2019-03-13T16:37:23.578Z,6.70
2019-03-13T16:39:55.340Z,6.50
2019-03-13T16:42:28.094Z,6.50
2019-03-13T16:45:00.471Z,6.50
2019-03-13T16:47:30.546Z,6.50
2019-03-13T16:50:02.248Z,6.40
2019-03-13T16:52:32.335Z,6.30
2019-03-13T16:55:02.426Z,6.20
2019-03-13T16:57:43.598Z,6.20
2019-03-13T17:00:31.194Z,6.10
2019-03-13T17:03:07.118Z,6.10
2019-03-13T17:05:37.212Z,6.00
2019-03-13T17:08:07.314Z,5.90
2019-03-13T17:10:40.487Z,5.90
2019-03-13T17:13:11.603Z,5.90
2019-03-13T17:15:47.698Z,5.80
2019-03-13T17:18:21.815Z,5.80
2019-03-13T17:20:55.769Z,5.70
2019-03-13T17:23:25.838Z,5.70
2019-03-13T17:25:55.918Z,5.70
2019-03-13T17:28:26.922Z,5.60
2019-03-13T17:30:58.226Z,5.60
2019-03-13T17:33:29.284Z,5.60
2019-03-13T17:35:59.355Z,5.60
2019-03-13T17:38:30.458Z,5.60
2019-03-13T17:41:02.579Z,5.50
2019-03-13T17:43:42.188Z,5.50
2019-03-13T17:46:12.252Z,5.50
2019-03-13T17:48:44.362Z,5.50
2019-03-13T17:51:14.484Z,5.50
2019-03-13T17:53:44.630Z,5.50
2019-03-13T17:56:20.664Z,5.50
2019-03-13T17:58:52.695Z,5.50
2019-03-13T18:01:24.827Z,5.50
2019-03-13T18:04:14.227Z,5.50
2019-03-13T18:06:44.321Z,5.40
2019-03-13T18:09:14.388Z,5.40
2019-03-13T18:12:04.347Z,5.40
2019-03-13T18:14:33.855Z,5.30
2019-03-13T18:17:05.325Z,5.30
2019-03-13T18:19:36.347Z,5.30
2019-03-13T18:22:06.422Z,5.30
2019-03-13T18:24:42.318Z,5.20
2019-03-13T18:27:13.311Z,5.20
2019-03-13T18:29:43.391Z,5.10
2019-03-13T18:32:13.481Z,5.10
2019-03-13T18:34:44.454Z,5.00
2019-03-13T18:37:22.058Z,5.00
2019-03-13T18:40:07.610Z,5.00
2019-03-13T18:42:37.134Z,5.00
2019-03-13T18:45:16.422Z,5.00
2019-03-13T18:47:46.882Z,5.00
2019-03-13T18:50:18.966Z,4.90
2019-03-13T18:52:50.031Z,4.90
2019-03-13T18:55:29.677Z,4.90
2019-03-13T18:58:00.598Z,4.90
2019-03-13T19:00:33.235Z,4.90
2019-03-13T19:03:03.320Z,4.90
2019-03-13T19:05:35.454Z,4.90
2019-03-13T19:08:07.601Z,4.90
2019-03-13T19:10:37.740Z,4.90
2019-03-13T19:13:08.025Z,4.90
2019-03-13T19:15:46.865Z,4.90
2019-03-13T19:18:18.931Z,4.90
2019-03-13T19:20:53.708Z,4.80
2019-03-13T19:23:23.646Z,4.80
2019-03-13T19:25:59.706Z,4.90
2019-03-13T19:28:29.922Z,4.90
2019-03-13T19:31:03.801Z,4.90
2019-03-13T19:33:52.419Z,4.50
2019-03-13T19:36:22.258Z,4.20
2019-03-13T19:38:52.979Z,4.10
2019-03-13T19:41:29.168Z,4.10
2019-03-13T19:44:00.469Z,4.00
2019-03-13T19:46:32.132Z,4.00
2019-03-13T19:49:02.399Z,4.00
2019-03-13T19:51:33.471Z,4.10
2019-03-13T19:54:05.519Z,4.10
2019-03-13T19:56:36.636Z,4.10
2019-03-13T19:59:08.631Z,4.10
2019-03-13T20:01:38.818Z,4.10
2019-03-13T20:04:09.912Z,4.10
2019-03-13T20:06:42.471Z,4.10
2019-03-13T20:09:12.064Z,4.10
2019-03-13T20:11:43.098Z,4.10
2019-03-13T20:14:21.602Z,4.20
2019-03-13T20:16:51.115Z,4.20
2019-03-13T20:19:22.692Z,4.10
2019-03-13T20:21:55.794Z,4.10
2019-03-13T20:24:30.806Z,4.20
2019-03-13T20:27:01.878Z,4.20
2019-03-13T20:29:31.963Z,4.20
2019-03-13T20:32:04.122Z,4.20
2019-03-13T20:34:34.329Z,4.30
2019-03-13T20:37:06.503Z,4.30
2019-03-13T20:39:42.602Z,4.30
2019-03-13T20:42:14.733Z,4.40
2019-03-13T20:44:44.807Z,4.40
2019-03-13T20:47:14.903Z,4.40
2019-03-13T20:49:46.940Z,4.40
2019-03-13T20:52:18.011Z,4.30
2019-03-13T20:54:58.851Z,4.30
2019-03-13T20:57:29.903Z,4.20
2019-03-13T20:59:59.983Z,4.10
2019-03-13T21:02:31.050Z,4.10
2019-03-13T21:05:01.238Z,4.10
2019-03-13T21:07:37.139Z,4.00
2019-03-13T21:10:12.396Z,4.00
2019-03-13T21:12:43.466Z,3.90
2019-03-13T21:15:28.617Z,3.90
2019-03-13T21:18:01.885Z,3.90
2019-03-13T21:20:32.928Z,3.80
2019-03-13T21:23:03.168Z,3.80
2019-03-13T21:25:34.262Z,3.70
2019-03-13T21:28:04.423Z,3.60
2019-03-13T21:30:34.515Z,3.60
2019-03-13T21:33:09.671Z,3.50
2019-03-13T21:35:41.740Z,3.50
2019-03-13T21:38:23.845Z,3.50
2019-03-13T21:40:55.943Z,3.50
2019-03-13T21:43:26.071Z,3.40
2019-03-13T21:45:56.155Z,3.30
2019-03-13T21:48:26.247Z,3.20
2019-03-13T21:50:57.350Z,3.10
2019-03-13T21:53:27.432Z,3.00
2019-03-13T21:55:57.625Z,2.90
2019-03-13T21:58:28.372Z,2.90
2019-03-13T22:01:18.830Z,2.90
2019-03-13T22:03:39.351Z,2.80
2019-03-13T22:06:28.049Z,2.80
2019-03-13T22:08:48.176Z,2.80
2019-03-13T22:11:26.487Z,2.80
2019-03-13T22:13:56.619Z,2.90
2019-03-13T22:16:31.683Z,2.80
2019-03-13T22:19:07.952Z,2.80
2019-03-13T22:21:46.407Z,2.80
2019-03-13T22:24:19.639Z,2.90
2019-03-13T22:26:49.943Z,2.90
2019-03-13T22:29:32.087Z,2.90
2019-03-13T22:32:09.963Z,2.90
2019-03-13T22:34:56.264Z,2.90
2019-03-13T22:37:26.369Z,2.90
2019-03-13T22:39:59.743Z,2.80
2019-03-13T22:42:31.835Z,2.80
2019-03-13T22:45:07.488Z,2.80
2019-03-13T22:47:42.669Z,2.80
2019-03-13T22:50:15.629Z,2.80
2019-03-13T22:52:51.601Z,2.80
2019-03-13T22:55:21.679Z,2.80
2019-03-13T22:58:03.875Z,2.80
2019-03-13T23:00:57.414Z,2.80
2019-03-13T23:03:29.847Z,2.80
2019-03-13T23:06:00.154Z,2.80
2019-03-13T23:08:31.280Z,2.80
2019-03-13T23:11:07.550Z,2.80
2019-03-13T23:13:37.675Z,2.80
2019-03-13T23:16:08.023Z,2.80
2019-03-13T23:18:38.091Z,2.80
2019-03-13T23:21:17.072Z,2.80
2019-03-13T23:23:48.147Z,2.80
2019-03-13T23:26:18.284Z,2.80
2019-03-13T23:28:48.383Z,2.80
2019-03-13T23:31:21.663Z,2.80
2019-03-13T23:33:51.746Z,2.80
2019-03-13T23:36:21.854Z,2.70
2019-03-13T23:39:07.050Z,2.70
2019-03-13T23:41:42.239Z,2.80
2019-03-13T23:44:15.327Z,2.80
2019-03-13T23:46:46.371Z,2.80
2019-03-13T23:49:16.454Z,2.80
2019-03-13T23:51:47.624Z,2.80
2019-03-13T23:54:24.815Z,2.80
2019-03-13T23:56:58.963Z,2.80
2019-03-13T23:59:29.041Z,2.80
